Skagerak — SGCD — position and weather

sailwx.info

Track history (hours):
 
Tides and Currents Weather Stations Pressure Air Temp Water Temp Dewpoint Dewpoint Depression Visibility Wind Speed Wind Dir Waves Ship Positions

Oceanographic research ship Skagerak (Sweden)

Detailed information on ship capabilities available from University of Delaware's Ocean Information Center.

Last reported at 2015-Mar-04 18:33 UTC. Time now 2015-Mar-04 18:53 UTC.
Position N 56°12' E 012°33'.

Length 37 m; draft 3.8 m.

Type: Dredging. MMSI: 265280000.

Date/timePositionNaut miles runAvg speedWind from/ knotsBaromVisibWave heightAir tempDewpointWater temp
2015-Mar-04 18:33N 56°12' E 012°33'0 0.0
2015-Mar-04 17:33N 56°12' E 012°33'0 0.0
2015-Mar-04 16:33N 56°12' E 012°33'0 0.0
2015-Mar-04 15:33N 56°12' E 012°33'0 0.0
2015-Mar-04 14:33N 56°12' E 012°33'0 0.0
2015-Mar-04 13:33N 56°12' E 012°33'0 0.0
2015-Mar-04 12:33N 56°12' E 012°33'0 0.0
2015-Mar-04 11:33N 56°12' E 012°33'0 0.0
2015-Mar-04 10:33N 56°12' E 012°33'0 0.0
2015-Mar-04 09:33N 56°12' E 012°33'0 0.0
2015-Mar-04 08:33N 56°12' E 012°33'0 0.0
2015-Mar-04 07:33N 56°12' E 012°33'0 0.0
2015-Mar-04 06:33N 56°12' E 012°33'4 4.0
2015-Mar-04 05:33N 56°15' E 012°28'1010.0
2015-Mar-04 04:33N 56°24' E 012°21'1410.2
2015-Mar-04 03:10N 56°38' E 012°13'610.6
2015-Mar-04 02:33N 56°44' E 012°09'1010.1
2015-Mar-04 01:33N 56°53' E 012°03'10 9.8
2015-Mar-04 00:33N 57°02' E 011°56'10 9.8
2015-Mar-03 23:32N 57°11' E 011°48'9 9.5
2015-Mar-03 22:33N 57°20' E 011°42'10 9.6
2015-Mar-03 21:33N 57°29' E 011°36'1110.6
2015-Mar-03 20:33N 57°39' E 011°29'10 9.9
2015-Mar-03 19:33N 57°49' E 011°25'9 8.5
2015-Mar-03 18:33N 57°57' E 011°21'8 8.0
2015-Mar-03 17:33N 58°05' E 011°18'8 7.7
2015-Mar-03 16:33N 58°12' E 011°24'3 3.4
2015-Mar-03 15:33N 58°15' E 011°27'0 0.0
2015-Mar-03 14:33N 58°15' E 011°27'0 0.0
2015-Mar-03 13:33N 58°15' E 011°27'0 0.0
2015-Mar-03 12:33N 58°15' E 011°27'0 0.0
2015-Mar-03 11:33N 58°15' E 011°27'0 0.0
2015-Mar-03 10:33N 58°15' E 011°27'0 0.0
2015-Mar-03 09:33N 58°15' E 011°27'0 0.0
2015-Mar-03 08:33N 58°15' E 011°27'0 0.0
2015-Mar-03 07:33N 58°15' E 011°27'0 0.0
2015-Mar-03 06:33N 58°15' E 011°27'0 0.0
2015-Mar-03 05:33N 58°15' E 011°27'0 0.0
2015-Mar-03 04:33N 58°15' E 011°27'0 0.0
2015-Mar-03 03:33N 58°15' E 011°27'0 0.0
2015-Mar-03 02:33N 58°15' E 011°27'0 0.0
2015-Mar-03 01:33N 58°15' E 011°27'0 0.0
2015-Mar-03 00:33N 58°15' E 011°27'0 0.0
2015-Mar-02 23:33N 58°15' E 011°27'0 0.0
2015-Mar-02 22:33N 58°15' E 011°27'0 0.0
2015-Mar-02 21:33N 58°15' E 011°27'0 0.0
2015-Mar-02 20:33N 58°15' E 011°27'0 0.0
2015-Mar-02 19:33N 58°15' E 011°27'0 0.0
2015-Mar-02 18:33N 58°15' E 011°27'0 0.0
2015-Mar-02 17:33N 58°15' E 011°27'0 0.0
2015-Mar-02 16:33N 58°15' E 011°27'0 0.0
2015-Mar-02 15:33N 58°15' E 011°27'0 0.0
2015-Mar-02 14:33N 58°15' E 011°27'0 0.0
2015-Mar-02 13:33N 58°15' E 011°27'0 0.0
2015-Mar-02 12:33N 58°15' E 011°27'0 0.0
2015-Mar-02 11:33N 58°15' E 011°27'0 0.0
2015-Mar-02 10:33N 58°15' E 011°27'0 0.0
2015-Mar-02 09:33N 58°15' E 011°27'0 0.0
2015-Mar-02 08:33N 58°15' E 011°27'0 0.0
2015-Mar-02 07:33N 58°15' E 011°27'0 0.0
2015-Mar-02 06:33N 58°15' E 011°27'0 0.0
2015-Mar-02 05:33N 58°15' E 011°27'0 0.0
2015-Mar-02 04:33N 58°15' E 011°27'0 0.0
2015-Mar-02 03:33N 58°15' E 011°27'0 0.0
2015-Mar-02 02:33N 58°15' E 011°27'0 0.0
2015-Mar-02 01:33N 58°15' E 011°27'0 0.0
2015-Mar-02 00:33N 58°15' E 011°27'0 0.0
2015-Mar-01 23:33N 58°15' E 011°27'0 0.0
2015-Mar-01 22:33N 58°15' E 011°27'0 0.0
2015-Mar-01 21:33N 58°15' E 011°27'0 0.0
2015-Mar-01 20:33N 58°15' E 011°27'0 0.0
2015-Mar-01 19:33N 58°15' E 011°27'0 0.0
2015-Mar-01 18:33N 58°15' E 011°27'0 0.0
2015-Mar-01 17:33N 58°15' E 011°27'0 0.0
2015-Mar-01 16:33N 58°15' E 011°27'0 0.0
2015-Mar-01 15:33N 58°15' E 011°27'0 0.0
2015-Mar-01 14:33N 58°15' E 011°27'0 0.0
2015-Mar-01 13:33N 58°15' E 011°27'0 0.0
2015-Mar-01 12:33N 58°15' E 011°27'0 0.0
2015-Mar-01 11:33N 58°15' E 011°27'0 0.0
2015-Mar-01 10:33N 58°15' E 011°27'0 0.0
2015-Mar-01 09:33N 58°15' E 011°27'0 0.0
2015-Mar-01 08:33N 58°15' E 011°27'0 0.0
2015-Mar-01 07:33N 58°15' E 011°27'0 0.0
2015-Mar-01 06:33N 58°15' E 011°27'0 0.0
2015-Mar-01 05:33N 58°15' E 011°27'0 0.0
2015-Mar-01 04:33N 58°15' E 011°27'0 0.0
2015-Mar-01 03:33N 58°15' E 011°27'0 0.0
2015-Mar-01 02:33N 58°15' E 011°27'0 0.0
2015-Mar-01 01:33N 58°15' E 011°27'0 0.0
2015-Mar-01 00:33N 58°15' E 011°27'0 0.0
2015-Feb-28 23:33N 58°15' E 011°27'0 0.0
2015-Feb-28 22:33N 58°15' E 011°27'0 0.0
2015-Feb-28 21:33N 58°15' E 011°27'0 0.0
2015-Feb-28 20:33N 58°15' E 011°27'0 0.0
2015-Feb-28 19:33N 58°15' E 011°27'0 0.0
2015-Feb-28 18:33N 58°15' E 011°27'0 0.0
2015-Feb-28 17:33N 58°15' E 011°27'0 0.0
2015-Feb-28 16:33N 58°15' E 011°27'0 0.0
2015-Feb-28 15:33N 58°15' E 011°27'0 0.0
2015-Feb-28 14:33N 58°15' E 011°27'0 0.0
2015-Feb-28 13:33N 58°15' E 011°27'0 0.0
2015-Feb-28 12:33N 58°15' E 011°27'0 0.0
2015-Feb-28 11:33N 58°15' E 011°27'0 0.0
2015-Feb-28 10:33N 58°15' E 011°27'0 0.0
2015-Feb-28 09:33N 58°15' E 011°27'0 0.0
2015-Feb-28 08:33N 58°15' E 011°27'0 0.0
2015-Feb-28 07:33N 58°15' E 011°27'0 0.0
2015-Feb-28 06:33N 58°15' E 011°27'0 0.0
2015-Feb-28 05:33N 58°15' E 011°27'0 0.0
2015-Feb-28 04:33N 58°15' E 011°27'0 0.0
2015-Feb-28 03:33N 58°15' E 011°27'0 0.0
2015-Feb-28 02:33N 58°15' E 011°27'0 0.0
2015-Feb-28 01:33N 58°15' E 011°27'0 0.0
2015-Feb-27 13:19N 58°15' E 011°27'0 0.0
2015-Feb-27 12:33N 58°15' E 011°27'0 0.0
2015-Feb-27 11:33N 58°15' E 011°27'0 0.0
2015-Feb-27 10:33N 58°15' E 011°27'0 0.0
2015-Feb-27 09:33N 58°15' E 011°27'0 0.0
2015-Feb-27 08:33N 58°15' E 011°27'0 0.0
2015-Feb-27 07:33N 58°15' E 011°27'0 0.0
2015-Feb-27 06:33N 58°15' E 011°27'0 0.0
2015-Feb-27 05:33N 58°15' E 011°27'0 0.0
2015-Feb-27 04:33N 58°15' E 011°27'0 0.0
2015-Feb-27 03:33N 58°15' E 011°27'0 0.0
2015-Feb-27 02:33N 58°15' E 011°27'0 0.0
2015-Feb-27 01:33N 58°15' E 011°27'0 0.0
2015-Feb-27 00:33N 58°15' E 011°27'0 0.0
2015-Feb-26 23:33N 58°15' E 011°27'0 0.0
2015-Feb-26 22:33N 58°15' E 011°27'0 0.0
2015-Feb-26 21:33N 58°15' E 011°27'0 0.0
2015-Feb-26 20:33N 58°15' E 011°27'0 0.0
2015-Feb-26 19:33N 58°15' E 011°27'0 0.0
2015-Feb-26 18:33N 58°15' E 011°27'0 0.0
2015-Feb-26 17:33N 58°15' E 011°27'0 0.0
2015-Feb-26 16:33N 58°15' E 011°27'0 0.0
2015-Feb-26 15:33N 58°15' E 011°27'0 0.0
2015-Feb-26 14:33N 58°15' E 011°27'0 0.0
2015-Feb-26 13:33N 58°15' E 011°27'0 0.0
2015-Feb-26 12:33N 58°15' E 011°27'0 0.0
2015-Feb-26 11:33N 58°15' E 011°27'0 0.0
2015-Feb-26 10:33N 58°15' E 011°27'0 0.0
2015-Feb-26 09:33N 58°15' E 011°27'0 0.0
2015-Feb-26 08:33N 58°15' E 011°27'0 0.0
2015-Feb-26 07:33N 58°15' E 011°27'0 0.0
2015-Feb-26 06:33N 58°15' E 011°27'0 0.0
2015-Feb-26 05:33N 58°15' E 011°27'0 0.0
2015-Feb-26 04:33N 58°15' E 011°27'0 0.0
2015-Feb-26 03:33N 58°15' E 011°27'0 0.0
2015-Feb-26 02:33N 58°15' E 011°27'0 0.0
2015-Feb-26 01:33N 58°15' E 011°27'0 0.0
2015-Feb-26 00:33N 58°15' E 011°27'0 0.0
2015-Feb-25 23:33N 58°15' E 011°27'0 0.0
2015-Feb-25 22:33N 58°15' E 011°27'0 0.0
2015-Feb-25 21:33N 58°15' E 011°27'0 0.0
2015-Feb-25 20:33N 58°15' E 011°27'0 0.0
2015-Feb-25 19:33N 58°15' E 011°27'0 0.0
2015-Feb-25 18:33N 58°15' E 011°27'0 0.0
2015-Feb-25 17:33N 58°15' E 011°27'0 0.0
2015-Feb-25 16:33N 58°15' E 011°27'0 0.0
2015-Feb-25 15:33N 58°15' E 011°27'0 0.0
2015-Feb-25 14:33N 58°15' E 011°27'0 0.0
2015-Feb-25 13:33N 58°15' E 011°27'0 0.0
2015-Feb-25 12:33N 58°15' E 011°27'0 0.0
2015-Feb-25 11:33N 58°15' E 011°27'0 0.0
2015-Feb-25 10:33N 58°15' E 011°27'0 0.0
2015-Feb-25 09:33N 58°15' E 011°27'0 0.0
2015-Feb-25 08:33N 58°15' E 011°27'0 0.0
2015-Feb-25 07:33N 58°15' E 011°27'0 0.0
2015-Feb-25 06:33N 58°15' E 011°27'0 0.0
2015-Feb-25 05:33N 58°15' E 011°27'0 0.0
2015-Feb-25 04:33N 58°15' E 011°27'0 0.0
2015-Feb-25 03:33N 58°15' E 011°27'0 0.0
2015-Feb-25 02:33N 58°15' E 011°27'0 0.0
2015-Feb-25 01:33N 58°15' E 011°27'0 0.0
2015-Feb-25 00:33N 58°15' E 011°27'0 0.0
2015-Feb-24 23:33N 58°15' E 011°27'0 0.0
2015-Feb-24 22:33N 58°15' E 011°27'0 0.0
2015-Feb-24 21:33N 58°15' E 011°27'0 0.0
2015-Feb-24 20:33N 58°15' E 011°27'0 0.0
2015-Feb-24 19:33N 58°15' E 011°27'0 0.0
2015-Feb-24 18:33N 58°15' E 011°27'0 0.0
2015-Feb-24 17:33N 58°15' E 011°27'0 0.0
2015-Feb-24 16:33N 58°15' E 011°27'0 0.0
2015-Feb-24 15:33N 58°15' E 011°27'0 0.0
2015-Feb-24 14:33N 58°15' E 011°27'0 0.0
2015-Feb-24 13:33N 58°15' E 011°27'0 0.0
2015-Feb-24 12:33N 58°15' E 011°27'0 0.0
2015-Feb-24 11:33N 58°15' E 011°27'0 0.0
2015-Feb-24 10:33N 58°15' E 011°27'0 0.0
2015-Feb-24 09:33N 58°15' E 011°27'0 0.0
2015-Feb-24 08:33N 58°15' E 011°27'0 0.0
2015-Feb-24 07:33N 58°15' E 011°27'0 0.0
2015-Feb-24 06:33N 58°15' E 011°27'0 0.0
2015-Feb-24 05:33N 58°15' E 011°27'0 0.0
2015-Feb-24 04:33N 58°15' E 011°27'0 0.0
2015-Feb-24 03:33N 58°15' E 011°27'0 0.0
2015-Feb-24 02:33N 58°15' E 011°27'0 0.0
2015-Feb-24 01:33N 58°15' E 011°27'0 0.0
2015-Feb-24 00:33N 58°15' E 011°27'0 0.0
2015-Feb-23 23:33N 58°15' E 011°27'0 0.0
2015-Feb-23 22:33N 58°15' E 011°27'0 0.0
2015-Feb-23 21:33N 58°15' E 011°27'0 0.0
2015-Feb-23 20:33N 58°15' E 011°27'0 0.0
2015-Feb-23 19:33N 58°15' E 011°27'0 0.0
2015-Feb-23 18:33N 58°15' E 011°27'0 0.0
2015-Feb-23 17:33N 58°15' E 011°27'0 0.0
2015-Feb-23 16:33N 58°15' E 011°27'0 0.0
2015-Feb-23 15:33N 58°15' E 011°27'0 0.0
2015-Feb-23 14:33N 58°15' E 011°27'0 0.0
2015-Feb-23 13:33N 58°15' E 011°27'0 0.0
2015-Feb-23 12:33N 58°15' E 011°27'0 0.0
2015-Feb-23 11:33N 58°15' E 011°27'0 0.0
2015-Feb-23 10:33N 58°15' E 011°27'0 0.0
2015-Feb-23 09:33N 58°15' E 011°27'0 0.0
2015-Feb-23 08:33N 58°15' E 011°27'0 0.0
2015-Feb-23 07:33N 58°15' E 011°27'0 0.0
2015-Feb-23 06:33N 58°15' E 011°27'0 0.0
2015-Feb-23 05:33N 58°15' E 011°27'0 0.0
2015-Feb-23 04:33N 58°15' E 011°27'0 0.0
2015-Feb-23 03:33N 58°15' E 011°27'0 0.0
2015-Feb-23 02:33N 58°15' E 011°27'0 0.0
2015-Feb-23 01:33N 58°15' E 011°27'0 0.0
2015-Feb-23 00:33N 58°15' E 011°27'0 0.0
2015-Feb-22 23:33N 58°15' E 011°27'0 0.0
2015-Feb-22 22:33N 58°15' E 011°27'0 0.0
2015-Feb-22 21:33N 58°15' E 011°27'0 0.0
2015-Feb-22 20:33N 58°15' E 011°27'0 0.0
2015-Feb-22 19:33N 58°15' E 011°27'0 0.0
2015-Feb-22 18:33N 58°15' E 011°27'  
Track history (hours):
 
Tides and Currents Weather Stations Pressure Air Temp Water Temp Dewpoint Dewpoint Depression Visibility Wind Speed Wind Dir Waves Ship Positions

Oceanographic research ship Skagerak (Sweden)

Detailed information on ship capabilities available from University of Delaware's Ocean Information Center.

Last reported at 2015-Mar-04 18:33 UTC. Time now 2015-Mar-04 18:53 UTC.
Position N 56°12' E 012°33'.

Length 37 m; draft 3.8 m.

Type: Dredging. MMSI: 265280000.

Date/timePositionNaut miles runAvg speedWind from/ knotsBaromVisibWave heightAir tempDewpointWater temp
2015-Mar-04 18:33N 56°12' E 012°33'0 0.0
2015-Mar-04 17:33N 56°12' E 012°33'0 0.0
2015-Mar-04 16:33N 56°12' E 012°33'0 0.0
2015-Mar-04 15:33N 56°12' E 012°33'0 0.0
2015-Mar-04 14:33N 56°12' E 012°33'0 0.0
2015-Mar-04 13:33N 56°12' E 012°33'0 0.0
2015-Mar-04 12:33N 56°12' E 012°33'0 0.0
2015-Mar-04 11:33N 56°12' E 012°33'0 0.0
2015-Mar-04 10:33N 56°12' E 012°33'0 0.0
2015-Mar-04 09:33N 56°12' E 012°33'0 0.0
2015-Mar-04 08:33N 56°12' E 012°33'0 0.0
2015-Mar-04 07:33N 56°12' E 012°33'0 0.0
2015-Mar-04 06:33N 56°12' E 012°33'4 4.0
2015-Mar-04 05:33N 56°15' E 012°28'1010.0
2015-Mar-04 04:33N 56°24' E 012°21'1410.2
2015-Mar-04 03:10N 56°38' E 012°13'610.6
2015-Mar-04 02:33N 56°44' E 012°09'1010.1
2015-Mar-04 01:33N 56°53' E 012°03'10 9.8
2015-Mar-04 00:33N 57°02' E 011°56'10 9.8
2015-Mar-03 23:32N 57°11' E 011°48'9 9.5
2015-Mar-03 22:33N 57°20' E 011°42'10 9.6
2015-Mar-03 21:33N 57°29' E 011°36'1110.6
2015-Mar-03 20:33N 57°39' E 011°29'10 9.9
2015-Mar-03 19:33N 57°49' E 011°25'9 8.5
2015-Mar-03 18:33N 57°57' E 011°21'8 8.0
2015-Mar-03 17:33N 58°05' E 011°18'8 7.7
2015-Mar-03 16:33N 58°12' E 011°24'3 3.4
2015-Mar-03 15:33N 58°15' E 011°27'0 0.0
2015-Mar-03 14:33N 58°15' E 011°27'0 0.0
2015-Mar-03 13:33N 58°15' E 011°27'0 0.0
2015-Mar-03 12:33N 58°15' E 011°27'0 0.0
2015-Mar-03 11:33N 58°15' E 011°27'0 0.0
2015-Mar-03 10:33N 58°15' E 011°27'0 0.0
2015-Mar-03 09:33N 58°15' E 011°27'0 0.0
2015-Mar-03 08:33N 58°15' E 011°27'0 0.0
2015-Mar-03 07:33N 58°15' E 011°27'0 0.0
2015-Mar-03 06:33N 58°15' E 011°27'0 0.0
2015-Mar-03 05:33N 58°15' E 011°27'0 0.0
2015-Mar-03 04:33N 58°15' E 011°27'0 0.0
2015-Mar-03 03:33N 58°15' E 011°27'0 0.0
2015-Mar-03 02:33N 58°15' E 011°27'0 0.0
2015-Mar-03 01:33N 58°15' E 011°27'0 0.0
2015-Mar-03 00:33N 58°15' E 011°27'0 0.0
2015-Mar-02 23:33N 58°15' E 011°27'0 0.0
2015-Mar-02 22:33N 58°15' E 011°27'0 0.0
2015-Mar-02 21:33N 58°15' E 011°27'0 0.0
2015-Mar-02 20:33N 58°15' E 011°27'0 0.0
2015-Mar-02 19:33N 58°15' E 011°27'0 0.0
2015-Mar-02 18:33N 58°15' E 011°27'0 0.0
2015-Mar-02 17:33N 58°15' E 011°27'0 0.0
2015-Mar-02 16:33N 58°15' E 011°27'0 0.0
2015-Mar-02 15:33N 58°15' E 011°27'0 0.0
2015-Mar-02 14:33N 58°15' E 011°27'0 0.0
2015-Mar-02 13:33N 58°15' E 011°27'0 0.0
2015-Mar-02 12:33N 58°15' E 011°27'0 0.0
2015-Mar-02 11:33N 58°15' E 011°27'0 0.0
2015-Mar-02 10:33N 58°15' E 011°27'0 0.0
2015-Mar-02 09:33N 58°15' E 011°27'0 0.0
2015-Mar-02 08:33N 58°15' E 011°27'0 0.0
2015-Mar-02 07:33N 58°15' E 011°27'0 0.0
2015-Mar-02 06:33N 58°15' E 011°27'0 0.0
2015-Mar-02 05:33N 58°15' E 011°27'0 0.0
2015-Mar-02 04:33N 58°15' E 011°27'0 0.0
2015-Mar-02 03:33N 58°15' E 011°27'0 0.0
2015-Mar-02 02:33N 58°15' E 011°27'0 0.0
2015-Mar-02 01:33N 58°15' E 011°27'0 0.0
2015-Mar-02 00:33N 58°15' E 011°27'0 0.0
2015-Mar-01 23:33N 58°15' E 011°27'0 0.0
2015-Mar-01 22:33N 58°15' E 011°27'0 0.0
2015-Mar-01 21:33N 58°15' E 011°27'0 0.0
2015-Mar-01 20:33N 58°15' E 011°27'0 0.0
2015-Mar-01 19:33N 58°15' E 011°27'0 0.0
2015-Mar-01 18:33N 58°15' E 011°27'0 0.0
2015-Mar-01 17:33N 58°15' E 011°27'0 0.0
2015-Mar-01 16:33N 58°15' E 011°27'0 0.0
2015-Mar-01 15:33N 58°15' E 011°27'0 0.0
2015-Mar-01 14:33N 58°15' E 011°27'0 0.0
2015-Mar-01 13:33N 58°15' E 011°27'0 0.0
2015-Mar-01 12:33N 58°15' E 011°27'0 0.0
2015-Mar-01 11:33N 58°15' E 011°27'0 0.0
2015-Mar-01 10:33N 58°15' E 011°27'0 0.0
2015-Mar-01 09:33N 58°15' E 011°27'0 0.0
2015-Mar-01 08:33N 58°15' E 011°27'0 0.0
2015-Mar-01 07:33N 58°15' E 011°27'0 0.0
2015-Mar-01 06:33N 58°15' E 011°27'0 0.0
2015-Mar-01 05:33N 58°15' E 011°27'0 0.0
2015-Mar-01 04:33N 58°15' E 011°27'0 0.0
2015-Mar-01 03:33N 58°15' E 011°27'0 0.0
2015-Mar-01 02:33N 58°15' E 011°27'0 0.0
2015-Mar-01 01:33N 58°15' E 011°27'0 0.0
2015-Mar-01 00:33N 58°15' E 011°27'0 0.0
2015-Feb-28 23:33N 58°15' E 011°27'0 0.0
2015-Feb-28 22:33N 58°15' E 011°27'0 0.0
2015-Feb-28 21:33N 58°15' E 011°27'0 0.0
2015-Feb-28 20:33N 58°15' E 011°27'0 0.0
2015-Feb-28 19:33N 58°15' E 011°27'0 0.0
2015-Feb-28 18:33N 58°15' E 011°27'0 0.0
2015-Feb-28 17:33N 58°15' E 011°27'0 0.0
2015-Feb-28 16:33N 58°15' E 011°27'0 0.0
2015-Feb-28 15:33N 58°15' E 011°27'0 0.0
2015-Feb-28 14:33N 58°15' E 011°27'0 0.0
2015-Feb-28 13:33N 58°15' E 011°27'0 0.0
2015-Feb-28 12:33N 58°15' E 011°27'0 0.0
2015-Feb-28 11:33N 58°15' E 011°27'0 0.0
2015-Feb-28 10:33N 58°15' E 011°27'0 0.0
2015-Feb-28 09:33N 58°15' E 011°27'0 0.0
2015-Feb-28 08:33N 58°15' E 011°27'0 0.0
2015-Feb-28 07:33N 58°15' E 011°27'0 0.0
2015-Feb-28 06:33N 58°15' E 011°27'0 0.0
2015-Feb-28 05:33N 58°15' E 011°27'0 0.0
2015-Feb-28 04:33N 58°15' E 011°27'0 0.0
2015-Feb-28 03:33N 58°15' E 011°27'0 0.0
2015-Feb-28 02:33N 58°15' E 011°27'0 0.0
2015-Feb-28 01:33N 58°15' E 011°27'0 0.0
2015-Feb-27 13:19N 58°15' E 011°27'0 0.0
2015-Feb-27 12:33N 58°15' E 011°27'0 0.0
2015-Feb-27 11:33N 58°15' E 011°27'0 0.0
2015-Feb-27 10:33N 58°15' E 011°27'0 0.0
2015-Feb-27 09:33N 58°15' E 011°27'0 0.0
2015-Feb-27 08:33N 58°15' E 011°27'0 0.0
2015-Feb-27 07:33N 58°15' E 011°27'0 0.0
2015-Feb-27 06:33N 58°15' E 011°27'0 0.0
2015-Feb-27 05:33N 58°15' E 011°27'0 0.0
2015-Feb-27 04:33N 58°15' E 011°27'0 0.0
2015-Feb-27 03:33N 58°15' E 011°27'0 0.0
2015-Feb-27 02:33N 58°15' E 011°27'0 0.0
2015-Feb-27 01:33N 58°15' E 011°27'0 0.0
2015-Feb-27 00:33N 58°15' E 011°27'0 0.0
2015-Feb-26 23:33N 58°15' E 011°27'0 0.0
2015-Feb-26 22:33N 58°15' E 011°27'0 0.0
2015-Feb-26 21:33N 58°15' E 011°27'0 0.0
2015-Feb-26 20:33N 58°15' E 011°27'0 0.0
2015-Feb-26 19:33N 58°15' E 011°27'0 0.0
2015-Feb-26 18:33N 58°15' E 011°27'0 0.0
2015-Feb-26 17:33N 58°15' E 011°27'0 0.0
2015-Feb-26 16:33N 58°15' E 011°27'0 0.0
2015-Feb-26 15:33N 58°15' E 011°27'0 0.0
2015-Feb-26 14:33N 58°15' E 011°27'0 0.0
2015-Feb-26 13:33N 58°15' E 011°27'0 0.0
2015-Feb-26 12:33N 58°15' E 011°27'0 0.0
2015-Feb-26 11:33N 58°15' E 011°27'0 0.0
2015-Feb-26 10:33N 58°15' E 011°27'0 0.0
2015-Feb-26 09:33N 58°15' E 011°27'0 0.0
2015-Feb-26 08:33N 58°15' E 011°27'0 0.0
2015-Feb-26 07:33N 58°15' E 011°27'0 0.0
2015-Feb-26 06:33N 58°15' E 011°27'0 0.0
2015-Feb-26 05:33N 58°15' E 011°27'0 0.0
2015-Feb-26 04:33N 58°15' E 011°27'0 0.0
2015-Feb-26 03:33N 58°15' E 011°27'0 0.0
2015-Feb-26 02:33N 58°15' E 011°27'0 0.0
2015-Feb-26 01:33N 58°15' E 011°27'0 0.0
2015-Feb-26 00:33N 58°15' E 011°27'0 0.0
2015-Feb-25 23:33N 58°15' E 011°27'0 0.0
2015-Feb-25 22:33N 58°15' E 011°27'0 0.0
2015-Feb-25 21:33N 58°15' E 011°27'0 0.0
2015-Feb-25 20:33N 58°15' E 011°27'0 0.0
2015-Feb-25 19:33N 58°15' E 011°27'0 0.0
2015-Feb-25 18:33N 58°15' E 011°27'0 0.0
2015-Feb-25 17:33N 58°15' E 011°27'0 0.0
2015-Feb-25 16:33N 58°15' E 011°27'0 0.0
2015-Feb-25 15:33N 58°15' E 011°27'0 0.0
2015-Feb-25 14:33N 58°15' E 011°27'0 0.0
2015-Feb-25 13:33N 58°15' E 011°27'0 0.0
2015-Feb-25 12:33N 58°15' E 011°27'0 0.0
2015-Feb-25 11:33N 58°15' E 011°27'0 0.0
2015-Feb-25 10:33N 58°15' E 011°27'0 0.0
2015-Feb-25 09:33N 58°15' E 011°27'0 0.0
2015-Feb-25 08:33N 58°15' E 011°27'0 0.0
2015-Feb-25 07:33N 58°15' E 011°27'0 0.0
2015-Feb-25 06:33N 58°15' E 011°27'0 0.0
2015-Feb-25 05:33N 58°15' E 011°27'0 0.0
2015-Feb-25 04:33N 58°15' E 011°27'0 0.0
2015-Feb-25 03:33N 58°15' E 011°27'0 0.0
2015-Feb-25 02:33N 58°15' E 011°27'0 0.0
2015-Feb-25 01:33N 58°15' E 011°27'0 0.0
2015-Feb-25 00:33N 58°15' E 011°27'0 0.0
2015-Feb-24 23:33N 58°15' E 011°27'0 0.0
2015-Feb-24 22:33N 58°15' E 011°27'0 0.0
2015-Feb-24 21:33N 58°15' E 011°27'0 0.0
2015-Feb-24 20:33N 58°15' E 011°27'0 0.0
2015-Feb-24 19:33N 58°15' E 011°27'0 0.0
2015-Feb-24 18:33N 58°15' E 011°27'0 0.0
2015-Feb-24 17:33N 58°15' E 011°27'0 0.0
2015-Feb-24 16:33N 58°15' E 011°27'0 0.0
2015-Feb-24 15:33N 58°15' E 011°27'0 0.0
2015-Feb-24 14:33N 58°15' E 011°27'0 0.0
2015-Feb-24 13:33N 58°15' E 011°27'0 0.0
2015-Feb-24 12:33N 58°15' E 011°27'0 0.0
2015-Feb-24 11:33N 58°15' E 011°27'0 0.0
2015-Feb-24 10:33N 58°15' E 011°27'0 0.0
2015-Feb-24 09:33N 58°15' E 011°27'0 0.0
2015-Feb-24 08:33N 58°15' E 011°27'0 0.0
2015-Feb-24 07:33N 58°15' E 011°27'0 0.0
2015-Feb-24 06:33N 58°15' E 011°27'0 0.0
2015-Feb-24 05:33N 58°15' E 011°27'0 0.0
2015-Feb-24 04:33N 58°15' E 011°27'0 0.0
2015-Feb-24 03:33N 58°15' E 011°27'0 0.0
2015-Feb-24 02:33N 58°15' E 011°27'0 0.0
2015-Feb-24 01:33N 58°15' E 011°27'0 0.0
2015-Feb-24 00:33N 58°15' E 011°27'0 0.0
2015-Feb-23 23:33N 58°15' E 011°27'0 0.0
2015-Feb-23 22:33N 58°15' E 011°27'0 0.0
2015-Feb-23 21:33N 58°15' E 011°27'0 0.0
2015-Feb-23 20:33N 58°15' E 011°27'0 0.0
2015-Feb-23 19:33N 58°15' E 011°27'0 0.0
2015-Feb-23 18:33N 58°15' E 011°27'0 0.0
2015-Feb-23 17:33N 58°15' E 011°27'0 0.0
2015-Feb-23 16:33N 58°15' E 011°27'0 0.0
2015-Feb-23 15:33N 58°15' E 011°27'0 0.0
2015-Feb-23 14:33N 58°15' E 011°27'0 0.0
2015-Feb-23 13:33N 58°15' E 011°27'0 0.0
2015-Feb-23 12:33N 58°15' E 011°27'0 0.0
2015-Feb-23 11:33N 58°15' E 011°27'0 0.0
2015-Feb-23 10:33N 58°15' E 011°27'0 0.0
2015-Feb-23 09:33N 58°15' E 011°27'0 0.0
2015-Feb-23 08:33N 58°15' E 011°27'0 0.0
2015-Feb-23 07:33N 58°15' E 011°27'0 0.0
2015-Feb-23 06:33N 58°15' E 011°27'0 0.0
2015-Feb-23 05:33N 58°15' E 011°27'0 0.0
2015-Feb-23 04:33N 58°15' E 011°27'0 0.0
2015-Feb-23 03:33N 58°15' E 011°27'0 0.0
2015-Feb-23 02:33N 58°15' E 011°27'0 0.0
2015-Feb-23 01:33N 58°15' E 011°27'0 0.0
2015-Feb-23 00:33N 58°15' E 011°27'0 0.0
2015-Feb-22 23:33N 58°15' E 011°27'0 0.0
2015-Feb-22 22:33N 58°15' E 011°27'0 0.0
2015-Feb-22 21:33N 58°15' E 011°27'0 0.0
2015-Feb-22 20:33N 58°15' E 011°27'0 0.0
2015-Feb-22 19:33N 58°15' E 011°27'0 0.0
2015-Feb-22 18:33N 58°15' E 011°27'  

Dump ship's entire track history